Aviation Digital Data Service (ADDS)

Output produced by METARs form (1734 UTC 31 July 2014)
found at http://www.aviationweather.gov/adds/metars/
 
KLNS 311653Z 22006KT 10SM CLR 26/15 A3010 RMK AO2 SLP189 T02560150
KLNS 311732Z 3118/0118 23006KT P6SM SCT040 
     FM311930 24009KT P6SM VCSH BKN050 
     FM312300 VRB04KT P6SM BKN060 
     FM010900 VRB02KT 5SM BR SCT060